sensor_id;sensor_type;location;lat;lon;timestamp;pressure;altitude;pressure_sealevel;temperature;humidity
9035;BME280;4552;43.422;24.592;2022-07-23T00:02:01;99870.44;;;23.39;52.91
9035;BME280;4552;43.422;24.592;2022-07-23T00:04:28;99878.25;;;23.42;52.88
9035;BME280;4552;43.422;24.592;2022-07-23T00:06:55;99856.50;;;23.34;52.86
9035;BME280;4552;43.422;24.592;2022-07-23T00:09:22;99869.25;;;23.43;52.26
9035;BME280;4552;43.422;24.592;2022-07-23T00:11:49;99858.53;;;23.31;52.97
9035;BME280;4552;43.422;24.592;2022-07-23T00:14:17;99878.09;;;23.31;53.42
9035;BME280;4552;43.422;24.592;2022-07-23T00:16:46;99854.72;;;23.21;53.47
9035;BME280;4552;43.422;24.592;2022-07-23T00:19:12;99876.50;;;23.29;53.38
9035;BME280;4552;43.422;24.592;2022-07-23T00:21:40;99860.56;;;23.27;53.28
9035;BME280;4552;43.422;24.592;2022-07-23T00:24:07;99862.06;;;23.31;53.11
9035;BME280;4552;43.422;24.592;2022-07-23T00:26:34;99854.25;;;23.28;52.73
9035;BME280;4552;43.422;24.592;2022-07-23T00:29:01;99843.78;;;23.11;53.72
9035;BME280;4552;43.422;24.592;2022-07-23T00:31:28;99873.00;;;23.00;54.89
9035;BME280;4552;43.422;24.592;2022-07-23T00:33:57;99870.44;;;22.99;55.16
9035;BME280;4552;43.422;24.592;2022-07-23T00:36:26;99873.75;;;22.76;56.09
9035;BME280;4552;43.422;24.592;2022-07-23T00:38:53;99854.06;;;22.64;56.38
9035;BME280;4552;43.422;24.592;2022-07-23T00:41:21;99871.94;;;22.76;56.21
9035;BME280;4552;43.422;24.592;2022-07-23T00:43:48;99857.50;;;22.52;56.73
9035;BME280;4552;43.422;24.592;2022-07-23T00:46:19;99865.50;;;22.52;57.36
9035;BME280;4552;43.422;24.592;2022-07-23T00:48:46;99841.28;;;22.27;57.55
9035;BME280;4552;43.422;24.592;2022-07-23T00:51:15;99870.72;;;22.40;57.94
9035;BME280;4552;43.422;24.592;2022-07-23T00:53:43;99856.91;;;22.33;58.35
9035;BME280;4552;43.422;24.592;2022-07-23T00:56:10;99866.09;;;22.57;57.31
9035;BME280;4552;43.422;24.592;2022-07-23T00:58:39;99855.94;;;22.62;56.87
9035;BME280;4552;43.422;24.592;2022-07-23T01:01:09;99866.84;;;22.31;57.87
9035;BME280;4552;43.422;24.592;2022-07-23T01:03:38;99868.72;;;22.43;57.37
9035;BME280;4552;43.422;24.592;2022-07-23T01:06:05;99854.03;;;22.36;57.20
9035;BME280;4552;43.422;24.592;2022-07-23T01:08:34;99851.22;;;22.25;58.36
9035;BME280;4552;43.422;24.592;2022-07-23T01:11:01;99860.53;;;22.18;58.93
9035;BME280;4552;43.422;24.592;2022-07-23T01:13:28;99847.97;;;22.06;59.13
9035;BME280;4552;43.422;24.592;2022-07-23T01:15:55;99869.66;;;22.00;59.52
9035;BME280;4552;43.422;24.592;2022-07-23T01:18:23;99867.78;;;22.02;59.92
9035;BME280;4552;43.422;24.592;2022-07-23T01:20:50;99860.34;;;21.93;60.75
9035;BME280;4552;43.422;24.592;2022-07-23T01:23:19;99866.63;;;22.06;59.33
9035;BME280;4552;43.422;24.592;2022-07-23T01:25:48;99869.50;;;22.17;59.65
9035;BME280;4552;43.422;24.592;2022-07-23T01:28:15;99856.84;;;22.06;59.89
9035;BME280;4552;43.422;24.592;2022-07-23T01:30:42;99847.38;;;22.01;60.30
9035;BME280;4552;43.422;24.592;2022-07-23T01:33:09;99872.34;;;22.00;60.02
9035;BME280;4552;43.422;24.592;2022-07-23T01:35:36;99876.34;;;21.93;60.53
9035;BME280;4552;43.422;24.592;2022-07-23T01:38:03;99870.03;;;21.94;60.25
9035;BME280;4552;43.422;24.592;2022-07-23T01:40:32;99849.78;;;21.62;60.87
9035;BME280;4552;43.422;24.592;2022-07-23T01:42:59;99864.63;;;21.95;60.28
9035;BME280;4552;43.422;24.592;2022-07-23T01:45:26;99842.81;;;21.89;59.50
9035;BME280;4552;43.422;24.592;2022-07-23T01:47:53;99848.50;;;21.83;60.01
9035;BME280;4552;43.422;24.592;2022-07-23T01:50:22;99868.16;;;21.96;59.72
9035;BME280;4552;43.422;24.592;2022-07-23T01:52:49;99862.91;;;21.80;60.46
9035;BME280;4552;43.422;24.592;2022-07-23T01:55:16;99848.16;;;21.73;60.90
9035;BME280;4552;43.422;24.592;2022-07-23T01:57:45;99855.22;;;21.90;60.31
9035;BME280;4552;43.422;24.592;2022-07-23T02:00:13;99871.19;;;21.90;60.51
9035;BME280;4552;43.422;24.592;2022-07-23T02:02:40;99871.72;;;21.81;61.12
9035;BME280;4552;43.422;24.592;2022-07-23T02:05:08;99873.66;;;21.79;61.43
9035;BME280;4552;43.422;24.592;2022-07-23T02:07:35;99867.00;;;21.70;62.06
9035;BME280;4552;43.422;24.592;2022-07-23T02:10:02;99882.91;;;21.58;63.31
9035;BME280;4552;43.422;24.592;2022-07-23T02:12:29;99874.06;;;21.42;63.74
9035;BME280;4552;43.422;24.592;2022-07-23T02:14:58;99876.25;;;21.65;63.41
9035;BME280;4552;43.422;24.592;2022-07-23T02:17:25;99873.34;;;21.54;63.52
9035;BME280;4552;43.422;24.592;2022-07-23T02:19:53;99872.44;;;21.69;62.57
9035;BME280;4552;43.422;24.592;2022-07-23T02:22:22;99866.91;;;21.72;62.25
9035;BME280;4552;43.422;24.592;2022-07-23T02:24:49;99884.25;;;21.65;63.67
9035;BME280;4552;43.422;24.592;2022-07-23T02:27:16;99871.28;;;21.59;63.37
9035;BME280;4552;43.422;24.592;2022-07-23T02:29:44;99883.59;;;21.46;64.38
9035;BME280;4552;43.422;24.592;2022-07-23T02:32:12;99889.34;;;21.54;63.70
9035;BME280;4552;43.422;24.592;2022-07-23T02:34:39;99860.06;;;21.24;63.93
9035;BME280;4552;43.422;24.592;2022-07-23T02:37:07;99896.25;;;21.42;64.25
9035;BME280;4552;43.422;24.592;2022-07-23T02:39:34;99873.44;;;21.23;64.32
9035;BME280;4552;43.422;24.592;2022-07-23T02:42:01;99892.34;;;21.48;63.84
9035;BME280;4552;43.422;24.592;2022-07-23T02:44:29;99899.81;;;21.27;64.87
9035;BME280;4552;43.422;24.592;2022-07-23T02:46:56;99893.88;;;21.22;65.30
9035;BME280;4552;43.422;24.592;2022-07-23T02:49:24;99882.38;;;21.22;64.85
9035;BME280;4552;43.422;24.592;2022-07-23T02:51:52;99895.75;;;21.36;64.32
9035;BME280;4552;43.422;24.592;2022-07-23T02:54:19;99902.97;;;21.34;64.83
9035;BME280;4552;43.422;24.592;2022-07-23T02:56:46;99879.25;;;21.00;66.00
9035;BME280;4552;43.422;24.592;2022-07-23T02:59:13;99901.47;;;20.99;66.71
9035;BME280;4552;43.422;24.592;2022-07-23T03:01:40;99905.56;;;20.89;67.58
9035;BME280;4552;43.422;24.592;2022-07-23T03:04:09;99902.72;;;20.92;67.51
9035;BME280;4552;43.422;24.592;2022-07-23T03:06:38;99885.38;;;20.85;67.03
9035;BME280;4552;43.422;24.592;2022-07-23T03:09:05;99883.91;;;20.95;66.83
9035;BME280;4552;43.422;24.592;2022-07-23T03:11:35;99919.47;;;20.94;67.61
9035;BME280;4552;43.422;24.592;2022-07-23T03:14:02;99901.94;;;20.90;67.71
9035;BME280;4552;43.422;24.592;2022-07-23T03:16:29;99917.50;;;20.97;67.33
9035;BME280;4552;43.422;24.592;2022-07-23T03:18:56;99920.41;;;20.93;67.89
9035;BME280;4552;43.422;24.592;2022-07-23T03:21:23;99914.50;;;20.88;68.22
9035;BME280;4552;43.422;24.592;2022-07-23T03:23:52;99925.06;;;21.05;68.02
9035;BME280;4552;43.422;24.592;2022-07-23T03:26:19;99925.84;;;21.22;67.00
9035;BME280;4552;43.422;24.592;2022-07-23T03:28:46;99936.22;;;21.27;67.30
9035;BME280;4552;43.422;24.592;2022-07-23T03:31:13;99933.47;;;21.28;67.28
9035;BME280;4552;43.422;24.592;2022-07-23T03:33:40;99930.81;;;21.28;67.22
9035;BME280;4552;43.422;24.592;2022-07-23T03:36:08;99934.75;;;21.37;67.32
9035;BME280;4552;43.422;24.592;2022-07-23T03:38:35;99934.91;;;21.34;67.57
9035;BME280;4552;43.422;24.592;2022-07-23T03:41:04;99935.41;;;21.56;67.29
9035;BME280;4552;43.422;24.592;2022-07-23T03:43:31;99946.31;;;21.67;66.55
9035;BME280;4552;43.422;24.592;2022-07-23T03:45:58;99937.38;;;21.52;67.58
9035;BME280;4552;43.422;24.592;2022-07-23T03:48:25;99934.00;;;21.64;66.94
9035;BME280;4552;43.422;24.592;2022-07-23T03:50:53;99939.63;;;21.89;66.55
9035;BME280;4552;43.422;24.592;2022-07-23T03:53:20;99951.78;;;21.79;66.76
9035;BME280;4552;43.422;24.592;2022-07-23T03:55:47;99943.03;;;21.77;67.22
9035;BME280;4552;43.422;24.592;2022-07-23T03:58:15;99947.94;;;22.13;66.38
9035;BME280;4552;43.422;24.592;2022-07-23T04:00:42;99948.75;;;22.85;64.31
9035;BME280;4552;43.422;24.592;2022-07-23T04:03:09;99952.28;;;23.00;62.93
9035;BME280;4552;43.422;24.592;2022-07-23T04:05:36;99950.63;;;23.11;62.29
9035;BME280;4552;43.422;24.592;2022-07-23T04:08:03;99946.75;;;23.03;62.80
9035;BME280;4552;43.422;24.592;2022-07-23T04:10:30;99959.81;;;23.07;62.52
9035;BME280;4552;43.422;24.592;2022-07-23T04:12:57;99949.19;;;23.20;62.73
9035;BME280;4552;43.422;24.592;2022-07-23T04:15:26;99953.38;;;23.38;62.08
9035;BME280;4552;43.422;24.592;2022-07-23T04:17:53;99954.66;;;23.45;61.69
9035;BME280;4552;43.422;24.592;2022-07-23T04:20:20;99946.81;;;23.56;61.09
9035;BME280;4552;43.422;24.592;2022-07-23T04:22:47;99956.72;;;23.80;60.57
9035;BME280;4552;43.422;24.592;2022-07-23T04:25:14;99938.66;;;23.84;59.76
9035;BME280;4552;43.422;24.592;2022-07-23T04:27:42;99950.38;;;24.46;58.36
9035;BME280;4552;43.422;24.592;2022-07-23T04:30:12;99958.69;;;25.04;56.42
9035;BME280;4552;43.422;24.592;2022-07-23T04:32:41;99967.34;;;25.91;53.44
9035;BME280;4552;43.422;24.592;2022-07-23T04:35:08;99969.13;;;26.48;50.59
9035;BME280;4552;43.422;24.592;2022-07-23T04:37:35;99968.72;;;27.63;47.81
9035;BME280;4552;43.422;24.592;2022-07-23T04:40:04;99971.22;;;27.76;46.20
9035;BME280;4552;43.422;24.592;2022-07-23T04:42:31;99958.38;;;27.48;46.08
9035;BME280;4552;43.422;24.592;2022-07-23T04:44:59;99975.78;;;28.07;45.22
9035;BME280;4552;43.422;24.592;2022-07-23T04:47:26;99979.41;;;28.88;43.99
9035;BME280;4552;43.422;24.592;2022-07-23T04:49:55;99986.22;;;29.62;42.68
9035;BME280;4552;43.422;24.592;2022-07-23T04:52:22;99993.22;;;30.31;40.74
9035;BME280;4552;43.422;24.592;2022-07-23T04:54:49;99990.56;;;30.87;38.99
9035;BME280;4552;43.422;24.592;2022-07-23T04:57:16;99990.44;;;30.79;39.03
9035;BME280;4552;43.422;24.592;2022-07-23T04:59:44;99985.47;;;31.38;38.24
9035;BME280;4552;43.422;24.592;2022-07-23T05:02:11;99993.25;;;31.95;36.89
9035;BME280;4552;43.422;24.592;2022-07-23T05:04:38;99998.59;;;32.65;36.26
9035;BME280;4552;43.422;24.592;2022-07-23T05:07:07;99989.59;;;32.39;36.51
9035;BME280;4552;43.422;24.592;2022-07-23T05:09:34;99993.72;;;32.43;36.58
9035;BME280;4552;43.422;24.592;2022-07-23T05:12:01;99998.81;;;32.46;36.03
9035;BME280;4552;43.422;24.592;2022-07-23T05:14:28;100000.88;;;32.52;34.94
9035;BME280;4552;43.422;24.592;2022-07-23T05:16:55;100006.56;;;32.67;34.76
9035;BME280;4552;43.422;24.592;2022-07-23T05:19:21;100008.66;;;32.98;34.67
9035;BME280;4552;43.422;24.592;2022-07-23T05:21:49;100005.00;;;33.15;34.42
9035;BME280;4552;43.422;24.592;2022-07-23T05:24:17;99989.28;;;32.42;35.02
9035;BME280;4552;43.422;24.592;2022-07-23T05:26:45;100001.69;;;32.70;35.06
9035;BME280;4552;43.422;24.592;2022-07-23T05:29:13;99991.16;;;32.93;34.82
9035;BME280;4552;43.422;24.592;2022-07-23T05:31:40;100002.13;;;33.42;33.90
9035;BME280;4552;43.422;24.592;2022-07-23T05:34:07;100003.19;;;32.90;34.37
9035;BME280;4552;43.422;24.592;2022-07-23T05:36:34;100001.47;;;33.49;33.30
9035;BME280;4552;43.422;24.592;2022-07-23T05:39:02;99971.66;;;33.81;33.74
9035;BME280;4552;43.422;24.592;2022-07-23T05:41:31;99999.06;;;34.51;31.85
9035;BME280;4552;43.422;24.592;2022-07-23T05:43:58;100007.78;;;34.39;32.17
9035;BME280;4552;43.422;24.592;2022-07-23T05:46:25;100001.22;;;35.04;30.79
9035;BME280;4552;43.422;24.592;2022-07-23T05:48:52;100002.66;;;35.61;30.85
9035;BME280;4552;43.422;24.592;2022-07-23T05:51:20;99995.81;;;34.80;31.19
9035;BME280;4552;43.422;24.592;2022-07-23T05:53:50;100008.25;;;35.29;30.59
9035;BME280;4552;43.422;24.592;2022-07-23T05:56:17;99997.34;;;35.37;30.43
9035;BME280;4552;43.422;24.592;2022-07-23T05:58:46;100013.63;;;35.53;30.03
9035;BME280;4552;43.422;24.592;2022-07-23T06:01:13;99999.22;;;34.66;31.58
9035;BME280;4552;43.422;24.592;2022-07-23T06:03:40;100009.28;;;34.49;31.65
9035;BME280;4552;43.422;24.592;2022-07-23T06:06:06;100015.34;;;34.91;32.25
9035;BME280;4552;43.422;24.592;2022-07-23T06:08:33;100020.59;;;35.09;31.78
9035;BME280;4552;43.422;24.592;2022-07-23T06:11:00;100010.09;;;35.45;30.99
9035;BME280;4552;43.422;24.592;2022-07-23T06:13:27;100002.25;;;35.03;30.89
9035;BME280;4552;43.422;24.592;2022-07-23T06:15:56;100005.00;;;36.03;29.85
9035;BME280;4552;43.422;24.592;2022-07-23T06:18:23;100018.75;;;37.06;28.34
9035;BME280;4552;43.422;24.592;2022-07-23T06:20:53;100006.03;;;36.24;29.29
9035;BME280;4552;43.422;24.592;2022-07-23T06:23:20;100018.44;;;36.87;28.57
9035;BME280;4552;43.422;24.592;2022-07-23T06:25:47;100011.97;;;37.02;28.97
9035;BME280;4552;43.422;24.592;2022-07-23T06:28:14;100005.84;;;37.44;28.34
9035;BME280;4552;43.422;24.592;2022-07-23T06:30:41;100004.69;;;35.37;30.48
9035;BME280;4552;43.422;24.592;2022-07-23T06:33:10;99992.94;;;34.09;32.25
9035;BME280;4552;43.422;24.592;2022-07-23T06:35:41;100009.78;;;34.13;32.32
9035;BME280;4552;43.422;24.592;2022-07-23T06:38:08;99986.25;;;33.80;33.47
9035;BME280;4552;43.422;24.592;2022-07-23T06:40:35;99996.19;;;33.13;34.23
9035;BME280;4552;43.422;24.592;2022-07-23T06:43:02;99994.97;;;32.82;35.01
9035;BME280;4552;43.422;24.592;2022-07-23T06:45:29;99987.53;;;32.16;36.28
9035;BME280;4552;43.422;24.592;2022-07-23T06:47:56;99972.88;;;32.09;36.62
9035;BME280;4552;43.422;24.592;2022-07-23T06:50:25;99985.94;;;31.78;38.14
9035;BME280;4552;43.422;24.592;2022-07-23T06:52:52;99984.88;;;31.44;38.08
9035;BME280;4552;43.422;24.592;2022-07-23T06:55:20;99990.50;;;31.60;38.53
9035;BME280;4552;43.422;24.592;2022-07-23T06:57:47;99983.09;;;32.15;37.45
9035;BME280;4552;43.422;24.592;2022-07-23T07:00:14;99979.31;;;31.90;37.94
9035;BME280;4552;43.422;24.592;2022-07-23T07:02:41;99965.72;;;32.25;37.03
9035;BME280;4552;43.422;24.592;2022-07-23T07:05:08;99987.22;;;32.19;37.14
9035;BME280;4552;43.422;24.592;2022-07-23T07:07:36;99977.91;;;32.21;37.08
9035;BME280;4552;43.422;24.592;2022-07-23T07:10:04;99970.88;;;31.93;37.80
9035;BME280;4552;43.422;24.592;2022-07-23T07:12:31;99978.44;;;32.07;37.40
9035;BME280;4552;43.422;24.592;2022-07-23T07:15:00;99973.53;;;32.28;36.76
9035;BME280;4552;43.422;24.592;2022-07-23T07:17:27;99977.78;;;32.48;37.19
9035;BME280;4552;43.422;24.592;2022-07-23T07:19:54;99969.00;;;32.46;36.49
9035;BME280;4552;43.422;24.592;2022-07-23T07:22:21;99966.59;;;32.69;36.61
9035;BME280;4552;43.422;24.592;2022-07-23T07:24:49;99972.81;;;32.61;35.42
9035;BME280;4552;43.422;24.592;2022-07-23T07:27:16;99968.66;;;32.75;36.13
9035;BME280;4552;43.422;24.592;2022-07-23T07:29:45;99969.56;;;32.58;34.64
9035;BME280;4552;43.422;24.592;2022-07-23T07:32:12;99959.28;;;32.69;34.50
9035;BME280;4552;43.422;24.592;2022-07-23T07:34:39;99971.09;;;32.86;34.37
9035;BME280;4552;43.422;24.592;2022-07-23T07:37:06;99969.78;;;32.90;34.60
9035;BME280;4552;43.422;24.592;2022-07-23T07:39:33;99967.41;;;33.28;33.98
9035;BME280;4552;43.422;24.592;2022-07-23T07:42:02;99970.53;;;33.41;33.08
9035;BME280;4552;43.422;24.592;2022-07-23T07:44:33;99961.16;;;33.36;33.84
9035;BME280;4552;43.422;24.592;2022-07-23T07:47:02;99971.34;;;33.00;33.49
9035;BME280;4552;43.422;24.592;2022-07-23T07:49:30;99959.97;;;32.71;34.63
9035;BME280;4552;43.422;24.592;2022-07-23T07:51:58;99956.81;;;33.09;32.95
9035;BME280;4552;43.422;24.592;2022-07-23T07:54:25;99955.66;;;33.20;33.04
9035;BME280;4552;43.422;24.592;2022-07-23T07:56:52;99946.47;;;33.55;32.42
9035;BME280;4552;43.422;24.592;2022-07-23T07:59:21;99963.63;;;33.63;33.09
9035;BME280;4552;43.422;24.592;2022-07-23T08:01:50;99960.03;;;33.47;30.65
9035;BME280;4552;43.422;24.592;2022-07-23T08:04:17;99958.72;;;33.67;30.73
9035;BME280;4552;43.422;24.592;2022-07-23T08:06:44;99956.69;;;33.77;30.11
9035;BME280;4552;43.422;24.592;2022-07-23T08:09:11;99966.38;;;33.71;29.31
9035;BME280;4552;43.422;24.592;2022-07-23T08:11:43;99953.78;;;33.54;29.07
9035;BME280;4552;43.422;24.592;2022-07-23T08:14:21;99964.16;;;33.67;29.68
9035;BME280;4552;43.422;24.592;2022-07-23T08:16:48;99966.28;;;33.39;30.36
9035;BME280;4552;43.422;24.592;2022-07-23T08:19:15;99963.56;;;33.39;30.51
9035;BME280;4552;43.422;24.592;2022-07-23T08:21:43;99965.16;;;33.66;30.82
9035;BME280;4552;43.422;24.592;2022-07-23T08:24:10;99960.09;;;33.79;30.26
9035;BME280;4552;43.422;24.592;2022-07-23T08:26:37;99960.47;;;34.00;29.04
9035;BME280;4552;43.422;24.592;2022-07-23T08:29:04;99973.56;;;34.04;28.73
9035;BME280;4552;43.422;24.592;2022-07-23T08:31:36;99969.50;;;34.32;29.42
9035;BME280;4552;43.422;24.592;2022-07-23T08:34:03;99974.78;;;34.10;29.34
9035;BME280;4552;43.422;24.592;2022-07-23T08:36:30;99965.75;;;34.09;29.32
9035;BME280;4552;43.422;24.592;2022-07-23T08:39:00;99952.97;;;33.86;29.73
9035;BME280;4552;43.422;24.592;2022-07-23T08:41:29;99959.59;;;33.83;29.40
9035;BME280;4552;43.422;24.592;2022-07-23T08:43:56;99963.66;;;33.71;29.07
9035;BME280;4552;43.422;24.592;2022-07-23T08:46:26;99939.72;;;33.83;27.79
9035;BME280;4552;43.422;24.592;2022-07-23T08:48:57;99973.38;;;33.98;28.52
9035;BME280;4552;43.422;24.592;2022-07-23T08:51:26;99950.78;;;34.13;27.15
9035;BME280;4552;43.422;24.592;2022-07-23T08:53:56;99973.25;;;34.23;29.18
9035;BME280;4552;43.422;24.592;2022-07-23T08:56:23;99960.81;;;34.61;28.66
9035;BME280;4552;43.422;24.592;2022-07-23T08:58:53;99966.41;;;34.67;28.08
9035;BME280;4552;43.422;24.592;2022-07-23T09:01:20;99957.78;;;34.40;27.01
9035;BME280;4552;43.422;24.592;2022-07-23T09:03:50;99959.41;;;34.65;27.78
9035;BME280;4552;43.422;24.592;2022-07-23T09:06:19;99970.66;;;34.62;27.27
9035;BME280;4552;43.422;24.592;2022-07-23T09:08:46;99957.88;;;34.78;27.41
9035;BME280;4552;43.422;24.592;2022-07-23T09:11:16;99967.72;;;35.34;26.43
9035;BME280;4552;43.422;24.592;2022-07-23T09:13:46;99969.13;;;35.22;26.48
9035;BME280;4552;43.422;24.592;2022-07-23T09:16:15;99953.91;;;35.05;25.22
9035;BME280;4552;43.422;24.592;2022-07-23T09:18:45;99966.41;;;35.22;25.31
9035;BME280;4552;43.422;24.592;2022-07-23T09:21:17;99968.81;;;35.17;25.30
9035;BME280;4552;43.422;24.592;2022-07-23T09:23:48;99959.13;;;35.15;25.04
9035;BME280;4552;43.422;24.592;2022-07-23T09:26:27;99957.44;;;35.14;25.36
9035;BME280;4552;43.422;24.592;2022-07-23T09:29:00;99967.56;;;35.36;25.42
9035;BME280;4552;43.422;24.592;2022-07-23T09:31:32;99945.06;;;35.03;24.76
9035;BME280;4552;43.422;24.592;2022-07-23T09:34:12;99955.91;;;35.50;25.18
9035;BME280;4552;43.422;24.592;2022-07-23T09:36:39;99953.97;;;35.58;24.90
9035;BME280;4552;43.422;24.592;2022-07-23T09:39:08;99961.81;;;35.23;26.83
9035;BME280;4552;43.422;24.592;2022-07-23T09:41:37;99952.41;;;35.33;26.21
9035;BME280;4552;43.422;24.592;2022-07-23T09:44:09;99946.03;;;35.18;26.57
9035;BME280;4552;43.422;24.592;2022-07-23T09:46:37;99939.69;;;35.26;25.71
9035;BME280;4552;43.422;24.592;2022-07-23T09:49:15;99946.28;;;35.39;26.13
9035;BME280;4552;43.422;24.592;2022-07-23T09:51:45;99946.06;;;35.71;25.76
9035;BME280;4552;43.422;24.592;2022-07-23T09:54:32;99929.56;;;35.42;26.27
9035;BME280;4552;43.422;24.592;2022-07-23T09:57:02;99935.34;;;35.47;26.46
9035;BME280;4552;43.422;24.592;2022-07-23T09:59:31;99933.03;;;35.89;26.27
9035;BME280;4552;43.422;24.592;2022-07-23T10:02:00;99932.34;;;36.10;26.99
9035;BME280;4552;43.422;24.592;2022-07-23T10:04:28;99915.19;;;36.01;25.75
9035;BME280;4552;43.422;24.592;2022-07-23T10:06:59;99920.22;;;36.12;25.29
9035;BME280;4552;43.422;24.592;2022-07-23T10:09:28;99910.50;;;36.32;23.87
9035;BME280;4552;43.422;24.592;2022-07-23T10:12:12;99918.72;;;36.24;24.20
9035;BME280;4552;43.422;24.592;2022-07-23T10:14:44;99916.75;;;36.18;24.42
9035;BME280;4552;43.422;24.592;2022-07-23T10:17:11;99908.06;;;36.00;24.92
9035;BME280;4552;43.422;24.592;2022-07-23T10:19:39;99916.44;;;36.13;24.20
9035;BME280;4552;43.422;24.592;2022-07-23T10:22:08;99905.63;;;36.05;25.11
9035;BME280;4552;43.422;24.592;2022-07-23T10:24:50;99914.63;;;36.28;24.04
9035;BME280;4552;43.422;24.592;2022-07-23T10:30:22;99887.28;;;36.36;24.49
9035;BME280;4552;43.422;24.592;2022-07-23T10:33:02;99892.72;;;36.36;24.37
9035;BME280;4552;43.422;24.592;2022-07-23T10:35:42;99888.03;;;36.59;23.93
9035;BME280;4552;43.422;24.592;2022-07-23T10:38:12;99880.25;;;36.71;24.43
9035;BME280;4552;43.422;24.592;2022-07-23T10:40:54;99882.78;;;36.43;23.73
9035;BME280;4552;43.422;24.592;2022-07-23T10:43:27;99885.81;;;36.78;23.53
9035;BME280;4552;43.422;24.592;2022-07-23T10:45:55;99885.03;;;36.69;23.61
9035;BME280;4552;43.422;24.592;2022-07-23T10:48:24;99883.06;;;36.63;23.31
9035;BME280;4552;43.422;24.592;2022-07-23T10:51:09;99888.31;;;36.50;23.33
9035;BME280;4552;43.422;24.592;2022-07-23T10:53:55;99878.34;;;36.42;24.08
9035;BME280;4552;43.422;24.592;2022-07-23T10:57:04;99877.91;;;36.68;24.21
9035;BME280;4552;43.422;24.592;2022-07-23T11:00:15;99877.91;;;36.97;24.06
9035;BME280;4552;43.422;24.592;2022-07-23T11:02:44;99873.69;;;37.16;24.20
9035;BME280;4552;43.422;24.592;2022-07-23T11:05:13;99866.69;;;36.92;23.66
9035;BME280;4552;43.422;24.592;2022-07-23T11:10:51;99850.03;;;36.43;22.99
9035;BME280;4552;43.422;24.592;2022-07-23T11:13:37;99850.84;;;36.73;22.56
9035;BME280;4552;43.422;24.592;2022-07-23T11:16:12;99831.94;;;36.72;22.13
9035;BME280;4552;43.422;24.592;2022-07-23T11:19:05;99834.00;;;36.99;21.95
9035;BME280;4552;43.422;24.592;2022-07-23T11:21:50;99830.13;;;37.08;21.58
9035;BME280;4552;43.422;24.592;2022-07-23T11:24:22;99844.56;;;37.02;22.09
9035;BME280;4552;43.422;24.592;2022-07-23T11:29:46;99829.06;;;37.09;21.59
9035;BME280;4552;43.422;24.592;2022-07-23T11:32:29;99833.81;;;37.00;22.28
9035;BME280;4552;43.422;24.592;2022-07-23T11:34:59;99833.50;;;37.24;22.64
9035;BME280;4552;43.422;24.592;2022-07-23T11:37:38;99826.97;;;37.46;21.86
9035;BME280;4552;43.422;24.592;2022-07-23T11:40:09;99834.75;;;37.43;22.39
9035;BME280;4552;43.422;24.592;2022-07-23T11:42:37;99823.16;;;37.05;23.07
9035;BME280;4552;43.422;24.592;2022-07-23T11:45:07;99826.31;;;36.88;22.60
9035;BME280;4552;43.422;24.592;2022-07-23T11:47:36;99831.91;;;37.01;22.48
9035;BME280;4552;43.422;24.592;2022-07-23T11:50:06;99828.78;;;37.18;22.67
9035;BME280;4552;43.422;24.592;2022-07-23T11:52:34;99814.94;;;37.41;22.04
9035;BME280;4552;43.422;24.592;2022-07-23T11:55:03;99819.16;;;37.22;22.82
9035;BME280;4552;43.422;24.592;2022-07-23T11:57:31;99819.63;;;37.26;22.53
9035;BME280;4552;43.422;24.592;2022-07-23T12:00:04;99829.91;;;37.45;22.58
9035;BME280;4552;43.422;24.592;2022-07-23T12:02:32;99812.16;;;37.34;22.04
9035;BME280;4552;43.422;24.592;2022-07-23T12:05:01;99808.56;;;37.55;22.02
9035;BME280;4552;43.422;24.592;2022-07-23T12:14:28;99810.06;;;37.01;23.16
9035;BME280;4552;43.422;24.592;2022-07-23T12:17:10;99805.97;;;37.11;23.13
9035;BME280;4552;43.422;24.592;2022-07-23T12:19:37;99808.38;;;37.00;23.10
9035;BME280;4552;43.422;24.592;2022-07-23T12:22:09;99803.22;;;36.90;22.53
9035;BME280;4552;43.422;24.592;2022-07-23T12:24:57;99809.56;;;37.12;22.69
9035;BME280;4552;43.422;24.592;2022-07-23T12:27:32;99785.00;;;37.12;22.23
9035;BME280;4552;43.422;24.592;2022-07-23T12:30:15;99795.03;;;37.47;22.12
9035;BME280;4552;43.422;24.592;2022-07-23T12:32:43;99788.56;;;37.69;21.48
9035;BME280;4552;43.422;24.592;2022-07-23T12:35:19;99777.22;;;37.72;21.85
9035;BME280;4552;43.422;24.592;2022-07-23T12:37:51;99782.78;;;37.85;21.53
9035;BME280;4552;43.422;24.592;2022-07-23T12:43:31;99784.22;;;37.18;23.26
9035;BME280;4552;43.422;24.592;2022-07-23T12:46:08;99780.22;;;37.35;22.95
9035;BME280;4552;43.422;24.592;2022-07-23T12:48:38;99781.09;;;37.42;22.75
9035;BME280;4552;43.422;24.592;2022-07-23T12:51:15;99773.84;;;37.49;22.61
9035;BME280;4552;43.422;24.592;2022-07-23T12:53:46;99781.78;;;37.44;22.03
9035;BME280;4552;43.422;24.592;2022-07-23T12:56:18;99781.09;;;37.42;22.20
9035;BME280;4552;43.422;24.592;2022-07-23T12:58:48;99756.16;;;37.24;21.64
9035;BME280;4552;43.422;24.592;2022-07-23T13:04:26;99754.72;;;37.28;22.00
9035;BME280;4552;43.422;24.592;2022-07-23T13:06:55;99757.06;;;37.31;21.72
9035;BME280;4552;43.422;24.592;2022-07-23T13:09:32;99764.31;;;37.45;21.74
9035;BME280;4552;43.422;24.592;2022-07-23T13:12:13;99758.59;;;37.61;21.32
9035;BME280;4552;43.422;24.592;2022-07-23T13:14:56;99737.13;;;37.58;21.61
9035;BME280;4552;43.422;24.592;2022-07-23T13:17:40;99752.81;;;38.04;21.55
9035;BME280;4552;43.422;24.592;2022-07-23T13:20:15;99729.41;;;37.89;21.00
9035;BME280;4552;43.422;24.592;2022-07-23T13:22:57;99730.00;;;37.63;20.90
9035;BME280;4552;43.422;24.592;2022-07-23T13:25:27;99740.41;;;38.02;21.12
9035;BME280;4552;43.422;24.592;2022-07-23T13:27:59;99718.84;;;37.86;20.62
9035;BME280;4552;43.422;24.592;2022-07-23T13:30:44;99716.75;;;37.88;20.29
9035;BME280;4552;43.422;24.592;2022-07-23T13:33:31;99727.06;;;38.20;19.70
9035;BME280;4552;43.422;24.592;2022-07-23T13:36:26;99703.50;;;38.19;19.84
9035;BME280;4552;43.422;24.592;2022-07-23T13:39:03;99724.16;;;38.28;19.30
9035;BME280;4552;43.422;24.592;2022-07-23T13:41:43;99717.72;;;38.08;19.82
9035;BME280;4552;43.422;24.592;2022-07-23T13:44:22;99705.06;;;38.41;19.94
9035;BME280;4552;43.422;24.592;2022-07-23T13:47:28;99719.53;;;38.76;20.31